Time;durP1;ratioP1;P1;durP2;ratioP2;P2;SDS_P1;SDS_P2;PMS_P1;PMS_P2;Temp;Humidity;BMP_temperature;BMP_pressure;BME280_temperature;BME280_humidity;BME280_pressure;Samples;Min_cycle;Max_cycle;Signal;HPM_P1;HPM_P2
2024/01/16 09:01:47;;;;;;;16.20;7.90;;;;;;;-1.15;70.04;97889.08;102171;1295;636232;-75
2024/01/16 09:04:14;;;;;;;13.10;9.10;;;;;;;-1.15;70.31;97901.79;104442;1276;94839;-75
2024/01/16 09:06:43;;;;;;;13.90;8.00;;;;;;;-1.18;70.18;97904.00;104748;1266;94311;-74
2024/01/16 09:09:12;;;;;;;9.00;5.40;;;;;;;-1.17;70.05;97908.67;104670;1270;106475;-75
2024/01/16 09:11:40;;;;;;;9.00;5.10;;;;;;;-1.18;70.41;97905.91;104411;1273;95168;-75
2024/01/16 09:14:08;;;;;;;12.80;5.20;;;;;;;-1.17;70.31;97917.89;104442;1270;108949;-75
2024/01/16 09:16:36;;;;;;;10.30;5.00;;;;;;;-1.16;70.54;97923.02;104766;1269;97959;-79
2024/01/16 09:19:04;;;;;;;6.80;3.70;;;;;;;-1.16;70.55;97928.94;104693;1266;94295;-74
2024/01/16 09:21:32;;;;;;;12.40;4.60;;;;;;;-1.18;70.57;97927.13;105243;1259;106679;-78
2024/01/16 09:24:00;;;;;;;10.20;5.00;;;;;;;-1.21;70.40;97927.78;105120;1259;95455;-74
2024/01/16 09:26:28;;;;;;;7.80;3.90;;;;;;;-1.23;70.64;97932.40;105102;1256;109245;-75
2024/01/16 09:28:56;;;;;;;10.10;5.30;;;;;;;-1.26;70.65;97935.30;105291;1259;95321;-74
2024/01/16 09:31:24;;;;;;;10.10;5.10;;;;;;;-1.30;70.73;97943.47;105043;1257;95278;-75
2024/01/16 09:33:52;;;;;;;13.40;5.80;;;;;;;-1.38;70.78;97941.90;105190;1271;108123;-80
2024/01/16 09:36:20;;;;;;;14.00;4.90;;;;;;;-1.45;70.32;97940.11;105138;1259;95523;-74
2024/01/16 09:38:48;;;;;;;9.60;4.60;;;;;;;-1.50;70.63;97941.52;105253;1259;107571;-74
2024/01/16 09:41:16;;;;;;;8.30;4.20;;;;;;;-1.57;70.64;97942.33;105261;1257;96193;-74
2024/01/16 09:43:47;;;;;;;9.20;4.40;;;;;;;-1.59;70.44;97942.39;105240;1259;95262;-75
2024/01/16 09:46:17;;;;;;;10.90;4.90;;;;;;;-1.63;70.54;97943.98;105443;1259;108541;-75
2024/01/16 09:48:45;;;;;;;12.80;5.60;;;;;;;-1.64;70.50;97951.66;105270;1255;95531;-73
2024/01/16 09:51:14;;;;;;;13.50;5.30;;;;;;;-1.62;70.55;97952.09;105190;1278;107540;-76
2024/01/16 09:53:42;;;;;;;13.90;5.80;;;;;;;-1.61;70.76;97952.73;105571;1257;96181;-75
2024/01/16 09:56:20;;;;;;;22.30;9.00;;;;;;;-1.63;70.53;97955.42;105637;1254;95678;-75
2024/01/16 09:58:49;;;;;;;26.90;9.30;;;;;;;-1.62;70.63;97957.66;105487;1259;108543;-75
2024/01/16 10:01:19;;;;;;;19.60;8.30;;;;;;;-1.61;70.42;97954.85;105326;1253;95268;-75
2024/01/16 10:03:46;;;;;;;14.80;6.20;;;;;;;-1.57;70.61;97955.55;105226;1256;107620;-75
2024/01/16 10:06:17;;;;;;;14.50;6.20;;;;;;;-1.54;70.55;97957.33;104937;1260;95362;-75
2024/01/16 10:08:46;;;;;;;14.50;5.60;;;;;;;-1.51;70.58;97959.83;105437;1257;95305;-77
2024/01/16 10:11:13;;;;;;;14.00;5.40;;;;;;;-1.51;70.60;97970.92;105454;1256;108592;-75
2024/01/16 10:13:44;;;;;;;17.20;6.60;;;;;;;-1.49;70.39;97973.67;105605;1257;95358;-75
2024/01/16 10:16:12;;;;;;;16.10;6.10;;;;;;;-1.47;70.35;97973.92;105573;1269;107373;-75
2024/01/16 10:18:40;;;;;;;15.80;5.30;;;;;;;-1.45;70.59;97984.27;105652;1257;95400;-76
2024/01/16 10:21:28;;;;;;;10.40;5.20;;;;;;;-1.47;70.44;97989.90;105395;1257;96211;-78
2024/01/16 10:24:11;;;;;;;11.50;5.90;;;;;;;-1.47;70.59;97998.80;105304;1259;108573;-76
2024/01/16 10:26:38;;;;;;;9.00;5.00;;;;;;;-1.44;70.78;98000.76;105314;1260;95988;-75
2024/01/16 10:29:06;;;;;;;9.70;4.80;;;;;;;-1.43;70.37;98003.35;105516;1265;106752;-76
2024/01/16 10:31:34;;;;;;;12.80;6.90;;;;;;;-1.44;70.36;98004.42;105466;1257;95243;-75
2024/01/16 10:34:18;;;;;;;12.00;6.10;;;;;;;-1.43;70.61;98007.86;105699;1253;95170;-76
2024/01/16 10:36:46;;;;;;;15.10;6.40;;;;;;;-1.45;70.23;98013.30;105262;1259;108299;-76
2024/01/16 10:39:14;;;;;;;12.90;5.40;;;;;;;-1.49;70.23;98018.15;105658;1254;95294;-75
2024/01/16 10:41:47;;;;;;;12.10;5.10;;;;;;;-1.52;69.98;98023.67;105492;1257;107282;-75
2024/01/16 10:44:14;;;;;;;12.30;5.30;;;;;;;-1.58;70.10;98023.20;105520;1258;95333;-75
2024/01/16 10:46:42;;;;;;;16.90;6.60;;;;;;;-1.61;70.26;98023.69;105593;1257;95248;-75
2024/01/16 10:49:10;;;;;;;23.90;8.90;;;;;;;-1.63;70.39;98022.73;105447;1258;108565;-75
2024/01/16 10:51:39;;;;;;;18.90;7.70;;;;;;;-1.60;70.43;98022.07;105369;1257;95473;-82
2024/01/16 10:54:15;;;;;;;30.50;10.80;;;;;;;-1.58;70.04;98022.34;105487;1257;107179;-75
2024/01/16 10:56:48;;;;;;;24.00;9.70;;;;;;;-1.62;70.19;98025.12;105275;1257;95252;-75
2024/01/16 10:59:22;;;;;;;18.20;8.40;;;;;;;-1.66;70.31;98021.79;105445;1257;95231;-77
2024/01/16 11:03:40;;;;;;;19.90;7.10;;;;;;;-1.65;70.31;98024.35;102390;1305;636103;-75
2024/01/16 11:06:09;;;;;;;12.60;5.80;;;;;;;-1.60;70.25;98025.91;104796;1272;94260;-75
2024/01/16 11:08:38;;;;;;;11.40;4.80;;;;;;;-1.52;70.23;98031.14;105467;1262;94252;-76
2024/01/16 11:11:07;;;;;;;10.60;5.30;;;;;;;-1.42;70.35;98032.34;105619;1257;107205;-76
2024/01/16 11:13:36;;;;;;;14.30;6.40;;;;;;;-1.32;70.20;98037.84;105645;1260;95522;-83
2024/01/16 11:16:05;;;;;;;11.50;4.70;;;;;;;-1.27;70.03;98039.54;105335;1260;107613;-74
2024/01/16 11:18:34;;;;;;;6.60;3.90;;;;;;;-1.19;70.14;98039.73;105453;1260;94613;-76
2024/01/16 11:21:10;;;;;;;8.90;4.30;;;;;;;-1.09;70.27;98036.55;105514;1254;94880;-82
2024/01/16 11:23:45;;;;;;;7.20;3.90;;;;;;;-0.93;70.29;98042.49;105502;1266;107656;-81
2024/01/16 11:26:32;;;;;;;7.50;3.80;;;;;;;-0.83;70.29;98041.05;105546;1257;95597;-75
2024/01/16 11:29:26;;;;;;;6.70;3.10;;;;;;;-0.80;69.93;98037.25;105375;1260;107605;-76
2024/01/16 11:31:56;;;;;;;9.90;4.90;;;;;;;-0.88;69.78;98041.23;105197;1256;95320;-76
2024/01/16 11:34:44;;;;;;;12.00;6.00;;;;;;;-0.84;69.88;98039.50;105348;1257;95249;-75
2024/01/16 11:37:13;;;;;;;9.70;5.30;;;;;;;-0.78;69.95;98036.42;105709;1254;108570;-74
2024/01/16 11:39:41;;;;;;;8.50;4.20;;;;;;;-0.72;69.87;98042.83;105415;1254;95698;-76
2024/01/16 11:42:09;;;;;;;17.50;5.80;;;;;;;-0.66;69.74;98047.96;105163;1253;107152;-75
2024/01/16 11:44:50;;;;;;;12.60;5.10;;;;;;;-0.65;69.92;98051.05;105346;1257;95182;-76
2024/01/16 11:47:23;;;;;;;7.70;4.00;;;;;;;-0.62;69.85;98046.90;105523;1254;95226;-74
2024/01/16 11:50:09;;;;;;;8.00;3.70;;;;;;;-0.57;69.84;98047.06;105525;1255;107881;-74
2024/01/16 11:52:44;;;;;;;11.10;3.90;;;;;;;-0.60;69.73;98038.13;105677;1257;95249;-74
2024/01/16 11:55:36;;;;;;;8.90;4.50;;;;;;;-0.66;69.47;98037.66;105447;1267;105494;-76
2024/01/16 11:58:13;;;;;;;14.30;6.10;;;;;;;-0.74;69.64;98045.32;105728;1256;95255;-75
2024/01/16 12:00:44;;;;;;;13.50;6.30;;;;;;;-0.77;69.51;98048.22;105673;1257;95241;-75
2024/01/16 12:03:16;;;;;;;12.20;6.30;;;;;;;-0.75;69.67;98052.54;105711;1256;108166;-75
2024/01/16 12:06:02;;;;;;;12.80;6.00;;;;;;;-0.77;69.37;98058.67;105631;1257;95479;-74
2024/01/16 12:08:31;;;;;;;14.30;6.80;;;;;;;-0.80;69.52;98060.52;105428;1257;107675;-74
2024/01/16 12:10:59;;;;;;;13.70;7.00;;;;;;;-0.82;69.37;98064.99;106739;1256;96283;-74
2024/01/16 12:13:27;;;;;;;13.50;6.90;;;;;;;-0.84;69.58;98069.10;105381;1255;95166;-74
2024/01/16 12:16:06;;;;;;;16.30;7.30;;;;;;;-0.85;69.65;98070.01;106751;1254;107996;-75
2024/01/16 12:18:34;;;;;;;19.10;7.90;;;;;;;-0.85;69.41;98067.91;108566;1253;95438;-77
2024/01/16 12:21:12;;;;;;;15.20;7.70;;;;;;;-0.87;69.28;98068.70;108686;1254;107541;-75
2024/01/16 12:23:41;;;;;;;12.60;6.90;;;;;;;-0.91;69.57;98070.27;108671;1254;92932;-80
2024/01/16 12:26:22;;;;;;;12.20;6.70;;;;;;;-0.93;69.50;98070.66;107326;1253;95237;-75
2024/01/16 12:28:53;;;;;;;13.00;7.10;;;;;;;-0.90;69.75;98071.58;105337;1257;108018;-75
2024/01/16 12:31:28;;;;;;;14.00;7.00;;;;;;;-0.90;69.67;98077.85;105356;1258;95504;-75
2024/01/16 12:34:08;;;;;;;13.00;7.90;;;;;;;-0.92;69.69;98088.75;105855;1257;107367;-75
2024/01/16 12:36:38;;;;;;;15.60;7.90;;;;;;;-0.93;69.77;98091.59;105608;1255;95243;-75
2024/01/16 12:39:11;;;;;;;17.40;7.80;;;;;;;-0.95;69.74;98093.04;105449;1254;95261;-76
2024/01/16 12:41:46;;;;;;;22.10;9.80;;;;;;;-0.94;69.85;98102.25;105488;1257;108427;-77
2024/01/16 12:44:14;;;;;;;18.80;8.80;;;;;;;-0.95;69.91;98110.27;105357;1257;95337;-75
2024/01/16 12:46:55;;;;;;;26.10;11.80;;;;;;;-1.00;69.82;98117.61;105493;1267;107753;-75
2024/01/16 12:49:24;;;;;;;26.80;12.10;;;;;;;-1.03;69.55;98122.80;105182;1259;95342;-75
2024/01/16 12:52:20;;;;;;;19.90;10.00;;;;;;;-1.06;69.84;98125.48;105408;1254;95193;-75
2024/01/16 12:54:51;;;;;;;17.90;7.70;;;;;;;-1.08;69.90;98121.59;105475;1257;107077;-75
2024/01/16 12:57:19;;;;;;;26.80;9.80;;;;;;;-1.11;69.56;98126.23;105398;1257;96031;-79
2024/01/16 12:59:48;;;;;;;27.40;9.10;;;;;;;-1.14;69.95;98130.17;105344;1265;107401;-75
2024/01/16 13:02:22;;;;;;;19.30;7.60;;;;;;;-1.17;69.56;98129.08;105584;1254;95244;-83
2024/01/16 13:04:58;;;;;;;20.60;9.50;;;;;;;-1.22;69.80;98131.70;105392;1257;95742;-78
2024/01/16 13:07:27;;;;;;;15.30;8.00;;;;;;;-1.26;69.49;98130.65;105430;1254;106994;-75
2024/01/16 13:10:11;;;;;;;12.60;6.70;;;;;;;-1.24;69.76;98127.46;105505;1257;95239;-75
2024/01/16 13:12:40;;;;;;;14.30;6.10;;;;;;;-1.22;69.87;98126.31;105089;1260;107577;-75
2024/01/16 13:15:10;;;;;;;14.90;6.90;;;;;;;-1.21;70.14;98132.88;105573;1257;95268;-76
2024/01/16 13:17:39;;;;;;;12.90;7.60;;;;;;;-1.20;70.05;98133.02;105416;1254;96074;-77
2024/01/16 13:20:09;;;;;;;17.20;7.90;;;;;;;-1.20;70.02;98132.14;105582;1254;108189;-74
2024/01/16 13:22:37;;;;;;;20.30;8.00;;;;;;;-1.19;69.62;98140.61;105501;1260;95195;-74
2024/01/16 13:25:14;;;;;;;11.70;6.30;;;;;;;-1.19;69.77;98148.13;105470;1258;107596;-75
2024/01/16 13:27:41;;;;;;;17.70;6.90;;;;;;;-1.20;69.80;98151.62;105414;1254;95285;-73
2024/01/16 13:30:10;;;;;;;26.30;9.40;;;;;;;-1.19;69.74;98158.20;108582;1254;93266;-81
2024/01/16 13:32:38;;;;;;;59.80;15.40;;;;;;;-1.20;69.76;98153.89;105582;1253;108580;-77
2024/01/16 13:35:11;;;;;;;44.20;12.70;;;;;;;-1.26;69.64;98153.26;105376;1260;95217;-74
2024/01/16 13:37:40;;;;;;;57.40;17.30;;;;;;;-1.32;69.50;98150.88;105297;1254;108235;-74
2024/01/16 13:40:15;;;;;;;78.60;25.00;;;;;;;-1.37;69.41;98151.23;105701;1257;95260;-76
2024/01/16 13:42:43;;;;;;;76.20;25.40;;;;;;;-1.42;69.54;98158.05;105789;1253;95256;-74
2024/01/16 13:45:13;;;;;;;33.90;15.20;;;;;;;-1.47;69.35;98159.83;105409;1254;108264;-73
2024/01/16 13:47:41;;;;;;;52.20;20.40;;;;;;;-1.57;69.14;98164.86;105608;1254;95542;-73
2024/01/16 13:50:10;;;;;;;41.60;19.50;;;;;;;-1.61;69.37;98167.11;105488;1257;107624;-77
2024/01/16 13:52:40;;;;;;;48.00;20.70;;;;;;;-1.64;69.49;98162.36;105789;1253;96175;-74
2024/01/16 13:55:08;;;;;;;36.10;15.10;;;;;;;-1.66;69.45;98157.91;105662;1256;95345;-76
2024/01/16 13:57:36;;;;;;;58.70;24.10;;;;;;;-1.68;69.41;98164.43;106178;1256;107991;-76
2024/01/16 14:00:13;;;;;;;40.80;19.10;;;;;;;-1.72;69.35;98163.89;105451;1254;95488;-80
2024/01/16 14:02:46;;;;;;;61.70;21.50;;;;;;;-1.77;69.31;98161.98;105602;1256;108293;-75
2024/01/16 14:05:17;;;;;;;78.70;29.60;;;;;;;-1.76;69.49;98170.08;105631;1256;95275;-77
2024/01/16 14:07:50;;;;;;;37.90;16.30;;;;;;;-1.75;69.69;98171.80;105473;1257;95301;-75
2024/01/16 14:10:19;;;;;;;56.40;23.50;;;;;;;-1.77;69.53;98176.20;105650;1256;108607;-76
2024/01/16 14:12:49;;;;;;;38.30;19.30;;;;;;;-1.76;69.29;98182.44;105697;1254;95269;-76
2024/01/16 14:15:25;;;;;;;40.10;17.40;;;;;;;-1.76;69.56;98179.68;105530;1253;107133;-75
2024/01/16 14:17:56;;;;;;;54.30;23.20;;;;;;;-1.79;69.43;98179.25;105742;1258;95242;-80
2024/01/16 14:20:26;;;;;;;36.10;17.50;;;;;;;-1.83;69.34;98178.87;105640;1258;96656;-75
2024/01/16 14:22:57;;;;;;;43.20;18.40;;;;;;;-1.84;69.47;98178.40;105600;1253;108897;-74
2024/01/16 14:25:25;;;;;;;33.00;18.00;;;;;;;-1.85;69.43;98178.61;105708;1258;96165;-75
2024/01/16 14:28:03;;;;;;;31.00;14.30;;;;;;;-1.88;69.52;98187.06;105616;1256;107206;-81
2024/01/16 14:30:33;;;;;;;36.00;16.20;;;;;;;-1.90;69.38;98192.33;105911;1253;95259;-74
2024/01/16 14:33:01;;;;;;;43.80;22.30;;;;;;;-1.90;69.67;98200.66;105770;1256;95747;-75
2024/01/16 14:35:29;;;;;;;48.60;22.20;;;;;;;-1.90;69.51;98195.11;105830;1257;108336;-76
2024/01/16 14:37:57;;;;;;;58.10;26.20;;;;;;;-1.90;69.61;98202.41;105701;1257;95148;-74
2024/01/16 14:40:25;;;;;;;57.10;26.80;;;;;;;-1.92;69.55;98208.05;105741;1256;107904;-77
2024/01/16 14:42:56;;;;;;;60.40;27.70;;;;;;;-1.94;69.58;98212.63;105624;1257;95243;-79
2024/01/16 14:45:26;;;;;;;35.80;16.10;;;;;;;-1.96;69.13;98212.85;105558;1253;95192;-78
2024/01/16 14:47:54;;;;;;;23.50;11.70;;;;;;;-1.98;69.36;98214.84;105442;1256;108814;-77
2024/01/16 14:50:24;;;;;;;27.20;10.80;;;;;;;-2.00;69.56;98211.27;105588;1256;95179;-75
2024/01/16 14:52:52;;;;;;;22.10;9.90;;;;;;;-2.03;69.37;98209.31;105630;1257;107655;-76
2024/01/16 14:55:20;;;;;;;25.80;10.60;;;;;;;-2.09;69.68;98213.67;105393;1257;95246;-76
2024/01/16 14:57:59;;;;;;;24.90;9.70;;;;;;;-2.12;69.47;98217.41;105467;1256;96167;-75
2024/01/16 15:00:28;;;;;;;24.90;11.20;;;;;;;-2.14;69.38;98223.73;105316;1258;108601;-74
2024/01/16 15:02:59;;;;;;;32.50;13.20;;;;;;;-2.15;69.32;98230.20;105819;1253;95173;-76
2024/01/16 15:05:28;;;;;;;39.60;16.50;;;;;;;-2.17;69.65;98237.58;105447;1257;107606;-74
2024/01/16 15:07:56;;;;;;;31.80;13.90;;;;;;;-2.20;69.40;98240.30;105628;1261;95255;-76
2024/01/16 15:10:24;;;;;;;24.70;11.30;;;;;;;-2.25;69.32;98242.17;105366;1254;95352;-74
2024/01/16 15:12:52;;;;;;;23.60;11.30;;;;;;;-2.28;69.32;98248.87;105367;1260;108531;-75
2024/01/16 15:15:20;;;;;;;27.10;11.30;;;;;;;-2.31;69.39;98257.83;105754;1253;95234;-75
2024/01/16 15:18:26;;;;;;;35.30;13.10;;;;;;;-2.33;69.44;98260.15;105371;1267;107683;-71
2024/01/16 15:20:55;;;;;;;40.20;13.60;;;;;;;-2.35;69.64;98263.88;105470;1257;97953;-71
2024/01/16 15:23:25;;;;;;;32.50;13.90;;;;;;;-2.40;69.34;98262.30;105624;1256;97650;-72
2024/01/16 15:25:53;;;;;;;29.20;13.50;;;;;;;-2.43;69.45;98260.32;105379;1254;108184;-72
2024/01/16 15:28:21;;;;;;;25.10;11.10;;;;;;;-2.46;69.13;98264.95;105660;1253;96533;-72
2024/01/16 15:30:48;;;;;;;27.00;10.80;;;;;;;-2.48;69.71;98265.52;105965;1256;107175;-72
2024/01/16 15:33:16;;;;;;;18.70;8.60;;;;;;;-2.48;69.41;98272.27;105434;1254;96594;-69
2024/01/16 15:35:44;;;;;;;28.60;12.60;;;;;;;-2.46;69.53;98277.61;105697;1257;97041;-71
2024/01/16 15:38:12;;;;;;;21.60;9.90;;;;;;;-2.45;69.66;98281.58;105388;1256;109860;-71
2024/01/16 15:40:40;;;;;;;29.30;15.00;;;;;;;-2.44;69.72;98287.06;105554;1253;96558;-72
2024/01/16 15:43:08;;;;;;;27.90;14.60;;;;;;;-2.44;69.54;98288.64;105414;1256;106334;-71
2024/01/16 15:45:53;;;;;;;44.60;19.60;;;;;;;-2.44;69.31;98301.50;105425;1257;96569;-74
2024/01/16 15:48:21;;;;;;;39.80;16.80;;;;;;;-2.46;69.40;98306.60;105672;1256;96625;-72
2024/01/16 15:50:50;;;;;;;47.10;18.80;;;;;;;-2.43;69.61;98313.61;105697;1254;109938;-71
2024/01/16 15:53:18;;;;;;;67.70;26.10;;;;;;;-2.40;69.33;98319.61;105409;1257;96510;-71
2024/01/16 15:55:46;;;;;;;42.80;19.30;;;;;;;-2.38;69.56;98321.29;105579;1258;107892;-74
2024/01/16 15:58:14;;;;;;;31.80;13.30;;;;;;;-2.37;69.47;98318.98;105313;1257;96808;-72
2024/01/16 16:00:42;;;;;;;30.00;13.70;;;;;;;-2.36;69.53;98321.05;105268;1256;97538;-72
2024/01/16 16:03:10;;;;;;;33.70;14.00;;;;;;;-2.38;69.44;98320.41;105758;1256;109885;-71
2024/01/16 16:05:38;;;;;;;29.40;13.90;;;;;;;-2.40;69.80;98328.11;105163;1254;96606;-72
2024/01/16 16:08:06;;;;;;;35.70;15.80;;;;;;;-2.41;69.78;98328.30;105158;1256;107701;-72
2024/01/16 16:10:35;;;;;;;32.30;14.30;;;;;;;-2.42;69.37;98325.20;105374;1263;96658;-74
2024/01/16 16:13:04;;;;;;;31.50;15.40;;;;;;;-2.43;69.78;98331.85;105618;1253;96675;-71
2024/01/16 16:15:32;;;;;;;63.60;24.70;;;;;;;-2.47;69.30;98336.85;105505;1256;109975;-74
2024/01/16 16:18:00;;;;;;;57.40;22.60;;;;;;;-2.50;69.69;98338.70;105623;1254;96600;-73
2024/01/16 16:20:28;;;;;;;47.30;19.50;;;;;;;-2.53;69.44;98342.08;105526;1256;107403;-71
2024/01/16 16:22:56;;;;;;;51.50;20.60;;;;;;;-2.54;69.80;98345.75;105485;1256;96616;-72
2024/01/16 16:25:24;;;;;;;42.30;19.00;;;;;;;-2.57;69.11;98347.39;105472;1254;96535;-71
2024/01/16 16:27:51;;;;;;;42.20;18.30;;;;;;;-2.60;69.38;98357.38;105736;1257;109990;-72
2024/01/16 16:30:19;;;;;;;48.00;22.10;;;;;;;-2.63;69.37;98364.58;105482;1254;96593;-72
2024/01/16 16:32:47;;;;;;;48.10;20.60;;;;;;;-2.67;69.53;98365.41;105548;1257;108112;-72
2024/01/16 16:35:15;;;;;;;48.20;22.40;;;;;;;-2.70;69.48;98367.22;105513;1257;96689;-72
2024/01/16 16:37:44;;;;;;;48.50;23.80;;;;;;;-2.77;69.09;98366.56;105183;1253;96667;-71
2024/01/16 16:40:12;;;;;;;61.80;28.40;;;;;;;-2.83;69.21;98368.14;105643;1256;109789;-74
2024/01/16 16:42:40;;;;;;;72.80;33.90;;;;;;;-2.88;69.26;98371.58;105729;1257;96565;-72
2024/01/16 16:45:08;;;;;;;72.10;30.00;;;;;;;-2.94;69.32;98370.20;105771;1257;107557;-72
2024/01/16 16:47:36;;;;;;;72.50;33.10;;;;;;;-3.01;69.23;98367.77;105866;1254;96693;-72
2024/01/16 16:50:05;;;;;;;73.70;30.80;;;;;;;-3.06;69.17;98371.23;105606;1256;96609;-71
2024/01/16 16:52:33;;;;;;;66.90;26.30;;;;;;;-3.13;68.95;98369.67;105562;1253;109399;-72
2024/01/16 16:55:01;;;;;;;66.80;28.30;;;;;;;-3.20;69.24;98373.87;105667;1256;96599;-72
2024/01/16 16:57:28;;;;;;;65.50;26.60;;;;;;;-3.23;69.20;98377.06;105613;1256;107437;-72
2024/01/16 16:59:57;;;;;;;63.50;27.60;;;;;;;-3.29;68.87;98382.61;105758;1254;96686;-72
2024/01/16 17:02:25;;;;;;;54.80;24.70;;;;;;;-3.41;68.97;98389.34;105513;1256;96650;-71
2024/01/16 17:04:53;;;;;;;60.30;26.90;;;;;;;-3.51;68.85;98393.79;105278;1256;109904;-73
2024/01/16 17:07:21;;;;;;;60.70;26.00;;;;;;;-3.61;69.06;98395.75;105667;1267;96593;-72
2024/01/16 17:09:49;;;;;;;63.30;25.30;;;;;;;-3.64;69.09;98397.04;105685;1256;105558;-72
2024/01/16 17:12:18;;;;;;;60.20;26.00;;;;;;;-3.66;69.29;98395.55;105512;1256;97045;-72
2024/01/16 17:14:45;;;;;;;61.20;26.40;;;;;;;-3.69;69.10;98391.98;105482;1256;96587;-73
2024/01/16 17:17:13;;;;;;;64.20;25.70;;;;;;;-3.75;69.31;98396.81;105332;1254;110513;-72
2024/01/16 17:19:41;;;;;;;63.30;24.30;;;;;;;-3.81;68.83;98395.73;105514;1254;97829;-72
2024/01/16 17:22:09;;;;;;;58.00;22.60;;;;;;;-3.85;69.11;98403.63;105487;1257;107664;-72
2024/01/16 17:24:38;;;;;;;58.90;21.60;;;;;;;-3.88;68.97;98406.50;105411;1256;97084;-72
2024/01/16 17:27:06;;;;;;;51.70;21.80;;;;;;;-3.90;68.88;98409.84;105594;1258;96581;-74
2024/01/16 17:29:34;;;;;;;57.90;22.20;;;;;;;-3.96;68.99;98411.19;105413;1254;109379;-71
2024/01/16 17:32:03;;;;;;;55.60;23.40;;;;;;;-3.97;69.27;98411.20;105708;1256;97810;-74
2024/01/16 17:34:30;;;;;;;59.30;25.10;;;;;;;-3.94;69.17;98414.08;105279;1256;107468;-71
2024/01/16 17:36:58;;;;;;;64.30;26.20;;;;;;;-3.89;69.27;98420.02;105382;1258;96603;-71
2024/01/16 17:39:27;;;;;;;56.40;24.50;;;;;;;-3.83;69.39;98421.09;105262;1254;96596;-73
2024/01/16 17:41:55;;;;;;;52.70;21.00;;;;;;;-3.78;69.52;98428.23;105769;1253;108341;-71
2024/01/16 17:44:23;;;;;;;52.70;22.00;;;;;;;-3.71;69.46;98431.91;105594;1254;96631;-72
2024/01/16 17:46:51;;;;;;;54.90;23.80;;;;;;;-3.63;69.44;98435.85;105119;1259;107954;-72
2024/01/16 17:49:19;;;;;;;70.40;27.00;;;;;;;-3.53;69.63;98433.52;105352;1254;96619;-72
2024/01/16 17:51:48;;;;;;;67.20;26.50;;;;;;;-3.45;69.87;98432.43;105567;1254;97914;-72
2024/01/16 17:54:16;;;;;;;91.70;34.50;;;;;;;-3.38;69.89;98439.36;105585;1253;109330;-71
2024/01/16 17:56:47;;;;;;;91.20;32.80;;;;;;;-3.30;69.98;98439.51;105509;1256;96585;-71
2024/01/16 17:59:15;;;;;;;93.90;32.60;;;;;;;-3.22;70.31;98439.96;105622;1252;107247;-72
2024/01/16 18:01:43;;;;;;;105.50;40.10;;;;;;;-3.14;69.94;98441.01;105524;1260;96598;-71
2024/01/16 18:04:13;;;;;;;91.70;35.30;;;;;;;-3.04;70.03;98444.20;105190;1254;96519;-72
2024/01/16 18:06:42;;;;;;;94.20;37.40;;;;;;;-2.98;70.38;98444.20;105598;1256;110009;-71
2024/01/16 18:09:11;;;;;;;71.50;29.40;;;;;;;-2.94;71.00;98444.27;105344;1257;96602;-71
2024/01/16 18:11:52;;;;;;;65.80;28.80;;;;;;;-2.91;70.68;98446.98;105360;1256;107176;-72
2024/01/16 18:14:21;;;;;;;72.30;32.50;;;;;;;-2.86;70.28;98446.30;105413;1254;96483;-72
2024/01/16 18:16:50;;;;;;;60.80;27.40;;;;;;;-2.80;70.52;98449.95;105326;1256;98049;-72
2024/01/16 18:19:19;;;;;;;71.70;27.70;;;;;;;-2.75;70.05;98452.40;105544;1256;109536;-72
2024/01/16 18:21:48;;;;;;;67.50;29.60;;;;;;;-2.67;70.37;98450.63;105664;1253;96607;-72
2024/01/16 18:24:16;;;;;;;57.70;24.70;;;;;;;-2.61;70.46;98454.63;105636;1254;106114;-73
2024/01/16 18:26:45;;;;;;;66.80;24.40;;;;;;;-2.57;70.21;98452.75;105436;1256;97524;-72
2024/01/16 18:29:14;;;;;;;63.30;24.90;;;;;;;-2.51;70.23;98448.45;105652;1253;97390;-72
2024/01/16 18:31:42;;;;;;;83.60;29.50;;;;;;;-2.48;70.43;98447.83;105601;1253;109720;-74
2024/01/16 18:34:13;;;;;;;77.00;26.70;;;;;;;-2.44;70.55;98452.02;105240;1256;97533;-72
2024/01/16 18:36:49;;;;;;;75.80;27.10;;;;;;;-2.41;70.37;98449.34;105468;1258;107636;-72
2024/01/16 18:39:19;;;;;;;71.40;25.70;;;;;;;-2.39;70.61;98452.77;105290;1252;97880;-72
2024/01/16 18:41:51;;;;;;;75.60;28.20;;;;;;;-2.38;70.56;98455.16;105260;1256;96943;-72
2024/01/16 18:44:19;;;;;;;86.20;29.40;;;;;;;-2.35;70.23;98458.91;105424;1254;109962;-72
2024/01/16 18:46:47;;;;;;;61.40;22.60;;;;;;;-2.32;70.01;98461.06;105746;1253;96635;-71
2024/01/16 18:49:15;;;;;;;50.00;20.20;;;;;;;-2.30;70.47;98464.13;105314;1256;107138;-72
2024/01/16 18:51:44;;;;;;;42.30;20.20;;;;;;;-2.28;70.40;98469.80;105654;1258;96620;-74
2024/01/16 18:54:12;;;;;;;41.60;18.00;;;;;;;-2.26;70.16;98469.40;105668;1253;96533;-72
2024/01/16 18:56:40;;;;;;;47.70;20.50;;;;;;;-2.22;70.42;98472.91;105467;1252;109856;-72
2024/01/16 18:59:08;;;;;;;82.20;31.50;;;;;;;-2.20;70.14;98470.77;105767;1255;96551;-71
2024/01/16 19:01:36;;;;;;;66.00;26.00;;;;;;;-2.18;70.30;98472.80;105962;1256;107567;-72
2024/01/16 19:04:05;;;;;;;56.30;22.10;;;;;;;-2.16;70.19;98473.45;105767;1254;96596;-71
2024/01/16 19:06:33;;;;;;;71.90;32.50;;;;;;;-2.14;70.00;98473.38;105550;1254;96679;-73
2024/01/16 19:09:01;;;;;;;88.20;43.80;;;;;;;-2.12;70.35;98473.50;105824;1256;108407;-74
2024/01/16 19:11:29;;;;;;;100.90;41.40;;;;;;;-2.11;70.38;98470.35;105593;1255;97547;-72
2024/01/16 19:13:57;;;;;;;128.20;50.50;;;;;;;-2.10;70.20;98476.39;105544;1256;107573;-72
2024/01/16 19:16:25;;;;;;;173.80;77.30;;;;;;;-2.11;70.30;98479.71;105693;1254;96590;-71
2024/01/16 19:18:53;;;;;;;68.80;33.90;;;;;;;-2.12;70.12;98481.48;105359;1256;97270;-72
2024/01/16 19:21:21;;;;;;;42.50;22.20;;;;;;;-2.13;70.29;98485.17;105609;1257;109705;-73
2024/01/16 19:23:50;;;;;;;39.70;16.70;;;;;;;-2.17;70.10;98489.27;105417;1257;96725;-74
2024/01/16 19:26:17;;;;;;;36.60;16.70;;;;;;;-2.20;70.24;98493.19;105572;1267;106147;-72
2024/01/16 19:28:45;;;;;;;45.50;18.20;;;;;;;-2.24;70.27;98507.36;105560;1257;96613;-72
2024/01/16 19:31:13;;;;;;;40.60;17.80;;;;;;;-2.28;70.31;98513.56;105174;1257;96619;-73
2024/01/16 19:33:41;;;;;;;46.30;19.80;;;;;;;-2.30;70.24;98516.41;105349;1256;109812;-71
2024/01/16 19:36:11;;;;;;;42.80;18.30;;;;;;;-2.34;70.20;98523.12;105625;1253;97072;-73
2024/01/16 19:38:39;;;;;;;34.40;15.20;;;;;;;-2.38;70.06;98529.31;105517;1257;107655;-73
2024/01/16 19:41:09;;;;;;;37.10;17.00;;;;;;;-2.42;69.94;98531.00;105354;1252;96619;-71
2024/01/16 19:43:37;;;;;;;36.20;17.20;;;;;;;-2.45;69.99;98532.30;105415;1253;96571;-71
2024/01/16 19:46:04;;;;;;;35.80;16.00;;;;;;;-2.48;70.16;98536.36;105407;1270;109979;-73
2024/01/16 19:48:38;;;;;;;39.00;19.00;;;;;;;-2.48;70.04;98539.67;105520;1256;97832;-73
2024/01/16 19:51:07;;;;;;;34.60;17.20;;;;;;;-2.49;70.14;98543.18;105571;1256;106189;-73
2024/01/16 19:53:38;;;;;;;44.10;19.60;;;;;;;-2.49;70.19;98541.10;105776;1256;96591;-71
2024/01/16 19:56:07;;;;;;;68.60;28.20;;;;;;;-2.49;70.27;98541.45;105503;1254;96683;-72
2024/01/16 19:58:37;;;;;;;77.30;34.10;;;;;;;-2.49;69.99;98544.20;105310;1254;111779;-72
2024/01/16 20:01:05;;;;;;;112.90;39.70;;;;;;;-2.48;70.15;98547.14;105666;1254;96676;-72
2024/01/16 20:03:37;;;;;;;133.70;48.80;;;;;;;-2.47;70.15;98550.77;105945;1253;107610;-72
2024/01/16 20:06:05;;;;;;;81.50;38.00;;;;;;;-2.49;69.91;98547.67;105722;1256;96716;-72
2024/01/16 20:08:33;;;;;;;55.00;30.30;;;;;;;-2.54;69.82;98550.77;105641;1255;96583;-71
2024/01/16 20:11:01;;;;;;;44.70;22.60;;;;;;;-2.59;70.07;98550.39;105713;1256;107661;-72
2024/01/16 20:13:28;;;;;;;39.30;20.10;;;;;;;-2.63;69.86;98553.45;105538;1254;96572;-72
2024/01/16 20:15:56;;;;;;;38.40;16.80;;;;;;;-2.68;69.77;98558.46;105766;1256;107546;-71
2024/01/16 20:18:24;;;;;;;36.00;16.10;;;;;;;-2.73;69.67;98562.23;105793;1256;96583;-70
2024/01/16 20:20:52;;;;;;;33.80;15.70;;;;;;;-2.77;70.06;98567.02;105527;1256;96597;-72
2024/01/16 20:23:20;;;;;;;35.30;19.20;;;;;;;-2.80;69.82;98571.59;105549;1256;111367;-72
2024/01/16 20:25:48;;;;;;;31.80;14.50;;;;;;;-2.85;69.66;98577.65;105596;1257;97199;-71